Hancock, New York
Current Conditions -  °F | °C
As of 4:15 PM on Monday 24 Nov 2014 (Local Time) from KMSV Reporting Station
Few Clouds Few Clouds  
Wind Chill: 63°   Ceiling: Unl
Heat Index: 63°   Visibility: 10mi
Dew Point: 54°   Wind: 13mph
Humidity: 72%   Direction: 220°SW
Pressure: 29.57"   Gusts: 22mph
Location:  41.95°N, 75.28°W
Report Text: KMSV 242115Z AUTO 22011G19KT 10SM FEW034 17/12 A2957 RMK AO1
Loading
Personal Weather Stations






























Interactive Weather Map New forecast layout! Learn more

10-Day Weather Forecast

Advertisements
Track Severe Weather on mobile